createdAt,value
2018-06-11T00:01:39.308Z,86.20
2018-06-11T00:04:07.614Z,86.30
2018-06-11T00:06:35.963Z,85.60
2018-06-11T00:09:06.996Z,85.50
2018-06-11T00:11:35.473Z,85.70
2018-06-11T00:14:03.801Z,86.10
2018-06-11T00:16:32.253Z,85.50
2018-06-11T00:19:00.817Z,85.80
2018-06-11T00:21:29.112Z,86.50
2018-06-11T00:23:57.837Z,87.20
2018-06-11T00:26:26.165Z,86.80
2018-06-11T00:28:54.496Z,86.30
2018-06-11T00:31:22.833Z,86.10
2018-06-11T00:33:51.139Z,85.90
2018-06-11T00:43:43.669Z,87.90
2018-06-11T00:48:40.153Z,88.00
2018-06-11T00:53:36.549Z,86.90
2018-06-11T00:56:06.708Z,87.20
2018-06-11T00:58:35.854Z,87.40
2018-06-11T01:01:04.529Z,88.10
2018-06-11T01:03:32.813Z,88.30
2018-06-11T01:06:01.177Z,88.10
2018-06-11T01:08:29.533Z,88.20
2018-06-11T01:10:57.840Z,87.60
2018-06-11T01:13:26.158Z,88.00
2018-06-11T01:15:54.613Z,88.70
2018-06-11T01:18:22.967Z,88.20
2018-06-11T01:20:51.283Z,88.30
2018-06-11T01:23:19.618Z,87.80
2018-06-11T01:25:47.956Z,87.80
2018-06-11T01:28:16.257Z,88.20
2018-06-11T01:30:44.686Z,88.40
2018-06-11T01:33:13.056Z,88.30
2018-06-11T01:35:41.373Z,88.10
2018-06-11T01:38:09.693Z,88.40
2018-06-11T01:40:38.005Z,89.50
2018-06-11T01:43:06.434Z,89.70
2018-06-11T01:45:35.339Z,89.60
2018-06-11T01:50:31.757Z,88.80
2018-06-11T01:53:00.076Z,89.50
2018-06-11T01:55:28.392Z,89.40
2018-06-11T01:57:56.725Z,89.20
2018-06-11T02:00:25.277Z,89.00
2018-06-11T02:02:53.659Z,88.90
2018-06-11T02:05:21.957Z,88.90
2018-06-11T02:07:50.458Z,89.20
2018-06-11T02:10:18.805Z,90.20
2018-06-11T02:12:47.130Z,89.80
2018-06-11T02:15:15.614Z,90.00
2018-06-11T02:17:43.917Z,89.70
2018-06-11T02:20:12.231Z,90.30
2018-06-11T02:22:40.560Z,90.50
2018-06-11T02:25:08.909Z,90.20
2018-06-11T02:27:37.206Z,90.00
2018-06-11T02:30:05.709Z,90.30
2018-06-11T02:32:34.107Z,90.20
2018-06-11T02:35:02.470Z,90.30
2018-06-11T02:37:30.792Z,90.10
2018-06-11T02:39:59.125Z,90.00
2018-06-11T02:42:27.487Z,90.10
2018-06-11T02:44:55.813Z,90.20
2018-06-11T02:47:24.136Z,90.20
2018-06-11T02:49:52.414Z,90.20
2018-06-11T02:52:21.173Z,89.90
2018-06-11T02:54:49.537Z,90.20
2018-06-11T02:57:17.805Z,90.40
2018-06-11T02:59:46.125Z,90.50
2018-06-11T03:02:14.461Z,90.30
2018-06-11T03:04:42.792Z,90.20
2018-06-11T03:07:11.469Z,90.40
2018-06-11T03:09:39.912Z,90.30
2018-06-11T03:12:08.241Z,90.60
2018-06-11T03:14:37.193Z,90.60
2018-06-11T03:17:05.493Z,90.80
2018-06-11T03:19:34.913Z,91.00
2018-06-11T03:22:03.376Z,91.00
2018-06-11T03:24:31.700Z,90.80
2018-06-11T03:27:00.489Z,90.70
2018-06-11T03:29:28.942Z,90.90
2018-06-11T03:31:57.225Z,90.30
2018-06-11T03:34:25.508Z,90.20
2018-06-11T03:36:53.969Z,90.50
2018-06-11T03:39:22.322Z,91.20
2018-06-11T03:44:19.512Z,91.50
2018-06-11T03:46:47.806Z,91.40
2018-06-11T03:49:16.479Z,90.90
2018-06-11T03:56:41.001Z,90.90
2018-06-11T03:59:09.324Z,90.90
2018-06-11T04:01:37.701Z,90.80
2018-06-11T04:04:06.098Z,90.70
2018-06-11T04:06:34.840Z,91.30
2018-06-11T04:09:04.620Z,91.10
2018-06-11T04:11:32.985Z,91.20
2018-06-11T04:14:01.785Z,91.30
2018-06-11T04:18:58.162Z,90.80
2018-06-11T04:21:26.613Z,91.10
2018-06-11T04:26:23.017Z,91.50
2018-06-11T04:28:51.321Z,91.60
2018-06-11T04:31:19.658Z,91.80
2018-06-11T04:33:48.005Z,91.40
2018-06-11T04:36:16.511Z,91.30
2018-06-11T04:38:44.796Z,91.30
2018-06-11T04:41:13.081Z,91.50
2018-06-11T04:43:41.540Z,91.30
2018-06-11T04:46:09.861Z,91.20
2018-06-11T04:48:38.181Z,91.50
2018-06-11T04:53:34.577Z,91.50
2018-06-11T04:56:02.969Z,91.80
2018-06-11T04:58:31.369Z,91.10
2018-06-11T05:00:59.696Z,91.30
2018-06-11T05:03:28.073Z,91.30
2018-06-11T05:05:56.518Z,90.90
2018-06-11T05:08:24.845Z,90.70
2018-06-11T05:10:53.185Z,90.30
2018-06-11T05:13:21.703Z,90.40
2018-06-11T05:15:50.026Z,90.40
2018-06-11T05:18:18.434Z,90.40
2018-06-11T05:20:46.777Z,90.40
2018-06-11T05:23:15.157Z,90.20
2018-06-11T05:25:45.695Z,90.00
2018-06-11T05:28:16.179Z,89.90
2018-06-11T05:30:54.922Z,89.40
2018-06-11T05:33:31.212Z,89.30
2018-06-11T05:35:59.521Z,88.70
2018-06-11T05:38:28.074Z,88.60
2018-06-11T05:40:56.808Z,88.00
2018-06-11T05:43:25.209Z,87.40
2018-06-11T05:45:53.585Z,87.40
2018-06-11T05:48:27.927Z,86.30
2018-06-11T05:50:56.289Z,86.50
2018-06-11T05:53:26.940Z,85.70
2018-06-11T05:56:00.820Z,84.20
2018-06-11T05:58:29.121Z,82.80
2018-06-11T06:01:03.828Z,82.80
2018-06-11T06:03:33.137Z,81.60
2018-06-11T06:06:02.361Z,81.50
2018-06-11T06:08:35.661Z,81.40
2018-06-11T06:11:04.988Z,81.20
2018-06-11T06:13:51.896Z,81.90
2018-06-11T06:16:20.317Z,82.00
2018-06-11T06:18:49.090Z,82.90
2018-06-11T06:21:18.877Z,82.20
2018-06-11T06:23:47.564Z,80.20
2018-06-11T06:26:15.845Z,80.30
2018-06-11T06:28:44.254Z,79.90
2018-06-11T06:31:12.638Z,78.70
2018-06-11T06:33:40.981Z,79.20
2018-06-11T06:36:09.490Z,79.20
2018-06-11T06:38:37.794Z,77.70
2018-06-11T06:41:06.124Z,77.30
2018-06-11T06:43:34.826Z,76.60
2018-06-11T06:46:05.376Z,76.40
2018-06-11T06:48:33.685Z,76.10
2018-06-11T06:51:02.017Z,75.90
2018-06-11T06:53:32.441Z,75.80
2018-06-11T06:56:00.745Z,74.10
2018-06-11T06:58:29.050Z,75.00
2018-06-11T07:01:01.190Z,75.10
2018-06-11T07:03:29.509Z,75.90
2018-06-11T07:05:57.845Z,74.00
2018-06-11T07:08:26.234Z,73.30
2018-06-11T07:10:55.009Z,72.80
2018-06-11T07:13:23.318Z,73.50
2018-06-11T07:15:52.557Z,74.50
2018-06-11T07:18:21.053Z,73.80
2018-06-11T07:20:49.424Z,73.40
2018-06-11T07:23:20.078Z,73.50
2018-06-11T07:25:48.742Z,72.60
2018-06-11T07:28:17.576Z,71.40
2018-06-11T07:30:47.149Z,72.10
2018-06-11T07:33:16.585Z,71.90
2018-06-11T07:35:46.939Z,70.90
2018-06-11T07:38:16.329Z,70.80
2018-06-11T07:40:46.498Z,70.70
2018-06-11T07:43:16.032Z,69.90
2018-06-11T07:45:45.181Z,70.10
2018-06-11T07:48:14.015Z,70.00
2018-06-11T07:50:42.825Z,68.70
2018-06-11T07:53:11.167Z,68.20
2018-06-11T07:55:39.985Z,67.00
2018-06-11T07:58:09.246Z,68.10
2018-06-11T08:00:38.072Z,68.30
2018-06-11T08:03:07.092Z,66.80
2018-06-11T08:05:36.502Z,67.70
2018-06-11T08:08:05.011Z,68.50
2018-06-11T08:10:33.606Z,66.70
2018-06-11T08:13:01.970Z,68.50
2018-06-11T08:15:30.293Z,66.20
2018-06-11T08:17:58.650Z,66.20
2018-06-11T08:20:26.984Z,64.30
2018-06-11T08:25:23.441Z,66.00
2018-06-11T08:27:51.825Z,64.00
2018-06-11T08:30:20.581Z,66.00
2018-06-11T08:32:49.740Z,64.20
2018-06-11T08:35:18.017Z,64.70
2018-06-11T08:37:46.332Z,63.50
2018-06-11T08:40:15.033Z,65.70
2018-06-11T08:42:43.329Z,63.20
2018-06-11T08:45:11.613Z,61.80
2018-06-11T08:47:41.181Z,63.20
2018-06-11T08:50:11.863Z,63.00
2018-06-11T08:52:40.337Z,64.20
2018-06-11T08:55:08.674Z,63.90
2018-06-11T08:57:37.049Z,64.40
2018-06-11T09:00:06.107Z,63.70
2018-06-11T09:02:34.421Z,64.20
2018-06-11T09:05:03.175Z,61.80
2018-06-11T09:07:31.638Z,62.80
2018-06-11T09:10:00.072Z,64.60
2018-06-11T09:12:28.526Z,63.50
2018-06-11T09:14:57.084Z,63.20
2018-06-11T09:17:25.417Z,64.20
2018-06-11T09:19:53.725Z,65.30
2018-06-11T09:22:22.218Z,64.10
2018-06-11T09:24:50.669Z,61.80
2018-06-11T09:29:47.466Z,63.60
2018-06-11T09:32:16.597Z,63.00
2018-06-11T09:34:46.173Z,63.00
2018-06-11T09:37:14.485Z,63.60
2018-06-11T09:39:43.985Z,61.00
2018-06-11T09:42:14.926Z,60.90
2018-06-11T09:44:43.241Z,59.00
2018-06-11T09:47:12.005Z,58.20
2018-06-11T09:49:42.770Z,58.00
2018-06-11T09:52:11.113Z,57.00
2018-06-11T09:54:39.572Z,58.40
2018-06-11T09:57:09.226Z,57.50
2018-06-11T09:59:39.275Z,58.20
2018-06-11T10:02:08.578Z,58.70
2018-06-11T10:04:41.669Z,57.70
2018-06-11T10:07:11.606Z,58.00
2018-06-11T10:09:42.737Z,55.70
2018-06-11T10:12:11.064Z,56.90
2018-06-11T10:14:39.445Z,54.20
2018-06-11T10:17:08.857Z,54.50
2018-06-11T10:19:37.130Z,54.40
2018-06-11T10:22:05.831Z,55.00
2018-06-11T10:27:02.689Z,55.90
2018-06-11T10:29:31.314Z,54.80
2018-06-11T10:31:59.633Z,55.00
2018-06-11T10:34:29.627Z,53.80
2018-06-11T10:36:57.997Z,53.10
2018-06-11T10:39:26.909Z,51.80
2018-06-11T10:44:28.477Z,52.20
2018-06-11T10:46:57.178Z,52.30
2018-06-11T10:49:30.506Z,50.80
2018-06-11T10:52:03.593Z,51.80
2018-06-11T10:54:32.414Z,51.60
2018-06-11T10:57:02.105Z,51.80
2018-06-11T10:59:30.697Z,51.90
2018-06-11T11:01:59.781Z,54.80
2018-06-11T11:04:28.710Z,55.60
2018-06-11T11:06:57.013Z,55.00
2018-06-11T11:09:25.365Z,55.50
2018-06-11T11:11:54.368Z,56.40
2018-06-11T11:14:22.720Z,55.50
2018-06-11T11:16:51.903Z,55.70
2018-06-11T11:19:22.247Z,56.20
2018-06-11T11:21:50.553Z,55.50
2018-06-11T11:24:19.361Z,57.20
2018-06-11T11:26:48.679Z,56.30
2018-06-11T11:29:18.410Z,53.70
2018-06-11T11:31:52.478Z,54.70
2018-06-11T11:34:20.789Z,52.60
2018-06-11T11:36:53.529Z,51.80
2018-06-11T11:39:26.357Z,51.70
2018-06-11T11:41:55.281Z,51.70
2018-06-11T11:44:24.175Z,53.00
2018-06-11T11:46:57.281Z,52.90
2018-06-11T11:49:30.375Z,52.90
2018-06-11T11:52:05.088Z,53.00
2018-06-11T11:54:35.030Z,54.40
2018-06-11T11:57:08.097Z,52.40
2018-06-11T11:59:39.532Z,51.70
2018-06-11T12:02:08.157Z,54.20
2018-06-11T12:04:37.253Z,52.50
2018-06-11T12:07:05.856Z,52.20
2018-06-11T12:09:34.340Z,51.20
2018-06-11T12:12:02.646Z,51.00
2018-06-11T12:14:31.503Z,50.80
2018-06-11T12:17:01.042Z,51.20
2018-06-11T12:19:29.478Z,53.20
2018-06-11T12:21:58.360Z,51.30
2018-06-11T12:24:26.897Z,52.30
2018-06-11T12:26:55.575Z,50.10
2018-06-11T12:29:24.337Z,51.00
2018-06-11T12:31:53.121Z,51.00
2018-06-11T12:34:21.393Z,51.90
2018-06-11T12:36:50.481Z,50.90
2018-06-11T12:39:21.099Z,50.20
2018-06-11T12:41:49.445Z,50.70
2018-06-11T12:44:21.405Z,51.60
2018-06-11T12:46:50.546Z,52.80
2018-06-11T12:49:20.373Z,53.20
2018-06-11T12:51:49.013Z,52.50
2018-06-11T12:54:18.595Z,50.50
2018-06-11T12:56:46.976Z,50.80
2018-06-11T12:59:15.500Z,52.70
2018-06-11T13:01:56.625Z,50.30
2018-06-11T13:04:27.238Z,51.90
2018-06-11T13:09:34.882Z,50.90
2018-06-11T13:12:25.342Z,50.90
2018-06-11T13:14:54.617Z,51.50
2018-06-11T13:17:22.971Z,51.80
2018-06-11T13:19:51.248Z,51.90
2018-06-11T13:22:19.878Z,51.20
2018-06-11T13:24:48.382Z,50.50
2018-06-11T13:29:45.109Z,49.50
2018-06-11T13:32:14.026Z,50.00
2018-06-11T13:34:42.914Z,50.60
2018-06-11T13:37:12.498Z,50.30
2018-06-11T13:39:42.113Z,50.50
2018-06-11T13:42:14.780Z,50.30
2018-06-11T13:44:43.075Z,49.80
2018-06-11T13:47:11.380Z,49.80
2018-06-11T13:52:08.610Z,50.30
2018-06-11T13:54:37.145Z,49.70
2018-06-11T13:57:05.901Z,49.40
2018-06-11T13:59:34.541Z,49.90
2018-06-11T14:02:04.024Z,49.50
2018-06-11T14:04:32.909Z,49.30
2018-06-11T14:07:02.957Z,49.70
2018-06-11T14:09:31.538Z,50.10
2018-06-11T14:11:59.837Z,50.10
2018-06-11T14:14:28.383Z,49.90
2018-06-11T14:16:56.650Z,49.20
2018-06-11T14:19:26.890Z,50.50
2018-06-11T14:21:55.237Z,50.90
2018-06-11T14:24:24.480Z,49.90
2018-06-11T14:26:54.069Z,51.20
2018-06-11T14:29:22.700Z,51.50
2018-06-11T14:31:51.053Z,50.50
2018-06-11T14:34:19.447Z,50.60
2018-06-11T14:36:47.705Z,48.40
2018-06-11T14:39:15.977Z,50.50
2018-06-11T14:41:44.302Z,49.50
2018-06-11T14:44:12.653Z,48.30
2018-06-11T14:49:31.165Z,49.70
2018-06-11T14:51:59.884Z,48.40
2018-06-11T14:54:28.978Z,49.10
2018-06-11T14:56:57.288Z,48.80
2018-06-11T14:59:25.967Z,49.20
2018-06-11T15:01:55.272Z,47.90
2018-06-11T15:04:23.604Z,49.10
2018-06-11T15:06:52.141Z,49.70
2018-06-11T15:09:20.441Z,49.30
2018-06-11T15:11:49.076Z,48.40
2018-06-11T15:14:17.805Z,49.00
2018-06-11T15:16:46.362Z,48.50
2018-06-11T15:19:15.141Z,49.90
2018-06-11T15:21:43.829Z,49.60
2018-06-11T15:24:12.596Z,49.90
2018-06-11T15:26:45.357Z,49.80
2018-06-11T15:29:14.488Z,49.50
2018-06-11T15:31:42.761Z,50.00
2018-06-11T15:34:11.122Z,50.80
2018-06-11T15:36:39.416Z,51.50
2018-06-11T15:39:08.195Z,51.50
2018-06-11T15:41:36.550Z,51.20
2018-06-11T15:44:04.871Z,52.00
2018-06-11T15:46:33.208Z,52.50
2018-06-11T15:51:29.569Z,52.50
2018-06-11T15:53:58.498Z,52.70
2018-06-11T15:56:26.956Z,53.90
2018-06-11T15:58:55.240Z,53.40
2018-06-11T16:01:23.737Z,52.80
2018-06-11T16:03:54.584Z,52.70
2018-06-11T16:06:22.945Z,53.00
2018-06-11T16:08:52.113Z,53.60
2018-06-11T16:11:20.873Z,53.60
2018-06-11T16:13:53.652Z,53.00
2018-06-11T16:18:55.352Z,54.30
2018-06-11T16:21:23.637Z,54.70
2018-06-11T16:23:54.355Z,54.10
2018-06-11T16:26:23.178Z,54.30
2018-06-11T16:28:51.897Z,54.70
2018-06-11T16:31:20.613Z,54.40
2018-06-11T16:33:48.848Z,55.70
2018-06-11T16:36:17.150Z,55.60
2018-06-11T16:38:45.449Z,55.90
2018-06-11T16:41:13.742Z,56.30
2018-06-11T16:43:42.109Z,55.70
2018-06-11T16:46:11.100Z,56.10
2018-06-11T16:48:39.433Z,56.80
2018-06-11T16:51:07.717Z,56.60
2018-06-11T16:53:36.088Z,57.20
2018-06-11T16:56:04.446Z,57.50
2018-06-11T16:58:32.722Z,57.40
2018-06-11T17:01:00.995Z,57.20
2018-06-11T17:03:29.265Z,57.20
2018-06-11T17:05:57.568Z,57.90
2018-06-11T17:08:26.029Z,58.10
2018-06-11T17:10:54.345Z,58.20
2018-06-11T17:13:22.650Z,57.60
2018-06-11T17:15:51.217Z,58.40
2018-06-11T17:18:19.576Z,58.00
2018-06-11T17:20:47.849Z,58.10
2018-06-11T17:23:16.145Z,58.10
2018-06-11T17:25:44.480Z,58.00
2018-06-11T17:28:12.749Z,58.00
2018-06-11T17:30:41.651Z,58.60
2018-06-11T17:33:10.029Z,58.20
2018-06-11T17:35:38.304Z,58.60
2018-06-11T17:38:06.680Z,58.40
2018-06-11T17:40:35.073Z,59.10
2018-06-11T17:43:03.345Z,59.40
2018-06-11T17:45:31.720Z,60.30
2018-06-11T17:48:00.126Z,59.00
2018-06-11T17:50:28.400Z,59.20
2018-06-11T17:52:56.748Z,59.00
2018-06-11T17:55:25.036Z,59.50
2018-06-11T17:57:54.604Z,58.90
2018-06-11T18:00:23.269Z,59.80
2018-06-11T18:05:19.589Z,59.60
2018-06-11T18:07:47.921Z,60.30
2018-06-11T18:10:16.617Z,59.10
2018-06-11T18:12:44.956Z,59.90
2018-06-11T18:15:14.063Z,61.10
2018-06-11T18:17:42.378Z,59.40
2018-06-11T18:20:10.903Z,60.10
2018-06-11T18:22:39.334Z,60.70
2018-06-11T18:25:07.686Z,59.70
2018-06-11T18:27:36.133Z,60.60
2018-06-11T18:30:04.792Z,60.20
2018-06-11T18:32:33.089Z,60.30
2018-06-11T18:35:01.529Z,59.60
2018-06-11T18:37:29.820Z,61.10
2018-06-11T18:39:58.215Z,60.60
2018-06-11T18:42:26.493Z,61.60
2018-06-11T18:44:55.231Z,60.90
2018-06-11T18:47:23.545Z,61.00
2018-06-11T18:52:20.324Z,62.10
2018-06-11T18:54:48.636Z,62.20
2018-06-11T18:57:17.009Z,62.80
2018-06-11T18:59:45.343Z,62.80
2018-06-11T19:02:13.685Z,63.20
2018-06-11T19:04:42.013Z,63.50
2018-06-11T19:07:10.623Z,65.30
2018-06-11T19:09:38.886Z,65.00
2018-06-11T19:12:07.229Z,65.30
2018-06-11T19:14:36.369Z,66.20
2018-06-11T19:17:04.685Z,66.60
2018-06-11T19:19:33.001Z,67.50
2018-06-11T19:22:01.380Z,66.50
2018-06-11T19:24:29.660Z,67.00
2018-06-11T19:26:58.054Z,67.10
2018-06-11T19:29:26.833Z,67.10
2018-06-11T19:31:55.871Z,68.70
2018-06-11T19:34:24.232Z,68.40
2018-06-11T19:36:52.804Z,67.50
2018-06-11T19:39:21.801Z,68.80
2018-06-11T19:41:50.380Z,68.80
2018-06-11T19:44:18.865Z,69.40
2018-06-11T19:46:47.281Z,69.40
2018-06-11T19:49:15.705Z,69.60
2018-06-11T19:51:44.906Z,70.30
2018-06-11T19:54:13.301Z,70.60
2018-06-11T19:56:42.274Z,70.60
2018-06-11T19:59:11.189Z,71.20
2018-06-11T20:01:39.509Z,70.70
2018-06-11T20:04:08.023Z,71.90
2018-06-11T20:06:36.352Z,71.70
2018-06-11T20:09:07.839Z,71.90
2018-06-11T20:11:36.231Z,72.30
2018-06-11T20:14:05.283Z,72.50
2018-06-11T20:16:33.620Z,72.60
2018-06-11T20:19:01.981Z,73.10
2018-06-11T20:21:30.508Z,73.80
2018-06-11T20:23:58.905Z,74.30
2018-06-11T20:26:28.037Z,74.50
2018-06-11T20:28:56.416Z,74.80
2018-06-11T20:31:25.717Z,74.90
2018-06-11T20:33:54.244Z,75.10
2018-06-11T20:36:22.645Z,75.30
2018-06-11T20:38:51.063Z,75.70
2018-06-11T20:41:19.461Z,75.40
2018-06-11T20:43:47.800Z,75.30
2018-06-11T20:46:16.985Z,76.40
2018-06-11T20:48:45.362Z,76.20
2018-06-11T20:51:14.069Z,76.90
2018-06-11T20:53:43.113Z,77.40
2018-06-11T20:56:12.186Z,76.30
2018-06-11T20:58:40.750Z,76.60
2018-06-11T21:01:09.232Z,77.60
2018-06-11T21:03:37.933Z,77.60
2018-06-11T21:06:06.374Z,78.00
2018-06-11T21:08:34.796Z,78.30
2018-06-11T21:11:03.282Z,78.30
2018-06-11T21:13:31.629Z,78.80
2018-06-11T21:16:00.083Z,79.80
2018-06-11T21:18:28.529Z,79.20
2018-06-11T21:20:56.937Z,79.20
2018-06-11T21:25:53.413Z,79.80
2018-06-11T21:28:21.802Z,79.90
2018-06-11T21:30:50.182Z,80.10
2018-06-11T21:33:18.723Z,80.80
2018-06-11T21:35:47.304Z,80.40
2018-06-11T21:38:15.653Z,80.90
2018-06-11T21:40:43.993Z,80.80
2018-06-11T21:43:12.341Z,80.90
2018-06-11T21:45:40.685Z,81.30
2018-06-11T21:48:09.767Z,82.00
2018-06-11T21:50:38.247Z,81.50
2018-06-11T21:53:07.245Z,81.70
2018-06-11T21:55:35.681Z,81.60
2018-06-11T21:58:04.192Z,82.30
2018-06-11T22:00:32.561Z,82.50
2018-06-11T22:03:00.904Z,82.80
2018-06-11T22:05:29.292Z,82.80
2018-06-11T22:07:57.771Z,82.80
2018-06-11T22:10:26.368Z,82.60
2018-06-11T22:12:54.752Z,82.90
2018-06-11T22:20:19.380Z,83.00
2018-06-11T22:25:15.841Z,83.60
2018-06-11T22:27:44.156Z,83.20
2018-06-11T22:30:12.696Z,83.60
2018-06-11T22:32:41.059Z,84.00
2018-06-11T22:35:09.533Z,84.40
2018-06-11T22:37:37.873Z,84.50
2018-06-11T22:40:06.213Z,84.70
2018-06-11T22:42:34.537Z,85.10
2018-06-11T22:45:03.330Z,84.60
2018-06-11T22:47:31.841Z,85.60
2018-06-11T22:52:28.321Z,85.10
2018-06-11T22:54:56.759Z,86.00
2018-06-11T22:57:25.140Z,85.60
2018-06-11T22:59:53.449Z,85.40
2018-06-11T23:02:21.821Z,85.90
2018-06-11T23:04:50.220Z,85.30
2018-06-11T23:07:18.526Z,85.20
2018-06-11T23:09:46.977Z,85.30
2018-06-11T23:12:15.305Z,85.30
2018-06-11T23:14:43.697Z,85.40
2018-06-11T23:17:12.194Z,85.90
2018-06-11T23:19:40.508Z,86.00
2018-06-11T23:22:08.926Z,86.40
2018-06-11T23:24:37.313Z,85.90
2018-06-11T23:27:05.649Z,86.70
2018-06-11T23:29:33.989Z,86.40
2018-06-11T23:32:02.346Z,85.70
2018-06-11T23:34:30.641Z,86.00
2018-06-11T23:36:59.481Z,86.40
2018-06-11T23:39:27.933Z,86.10
2018-06-11T23:41:56.286Z,86.90
2018-06-11T23:44:24.625Z,86.60
2018-06-11T23:46:53.241Z,87.00
2018-06-11T23:49:21.597Z,87.40
2018-06-11T23:51:49.919Z,87.90
2018-06-11T23:54:18.405Z,87.80
2018-06-11T23:56:46.733Z,87.10
2018-06-11T23:59:15.050Z,86.70
